sensor_id;sensor_type;location;lat;lon;timestamp;pressure;altitude;pressure_sealevel;temperature;humidity
13050;BME280;6591;51.446;5.404;2023-02-11T00:01:24;103184.09;;;13.06;48.99
13050;BME280;6591;51.446;5.404;2023-02-11T00:03:52;103182.25;;;13.08;48.94
13050;BME280;6591;51.446;5.404;2023-02-11T00:06:23;103173.41;;;13.06;49.02
13050;BME280;6591;51.446;5.404;2023-02-11T00:08:50;103168.97;;;13.07;49.22
13050;BME280;6591;51.446;5.404;2023-02-11T00:11:20;103162.78;;;13.05;49.06
13050;BME280;6591;51.446;5.404;2023-02-11T00:13:48;103158.31;;;13.05;49.24
13050;BME280;6591;51.446;5.404;2023-02-11T00:16:19;103158.38;;;13.02;49.42
13050;BME280;6591;51.446;5.404;2023-02-11T00:18:47;103157.50;;;13.02;48.96
13050;BME280;6591;51.446;5.404;2023-02-11T00:21:24;103162.94;;;12.97;49.36
13050;BME280;6591;51.446;5.404;2023-02-11T00:23:52;103155.75;;;12.99;49.21
13050;BME280;6591;51.446;5.404;2023-02-11T00:26:25;103147.81;;;12.98;49.14
13050;BME280;6591;51.446;5.404;2023-02-11T00:28:53;103142.41;;;13.01;49.90
13050;BME280;6591;51.446;5.404;2023-02-11T00:31:22;103151.28;;;13.03;49.09
13050;BME280;6591;51.446;5.404;2023-02-11T00:33:49;103152.97;;;13.05;49.47
13050;BME280;6591;51.446;5.404;2023-02-11T00:36:28;103151.19;;;13.06;49.57
13050;BME280;6591;51.446;5.404;2023-02-11T00:38:57;103147.56;;;13.10;48.97
13050;BME280;6591;51.446;5.404;2023-02-11T00:41:25;103144.00;;;13.12;49.57
13050;BME280;6591;51.446;5.404;2023-02-11T00:43:52;103143.03;;;13.17;49.54
13050;BME280;6591;51.446;5.404;2023-02-11T00:46:20;103139.47;;;13.18;49.71
13050;BME280;6591;51.446;5.404;2023-02-11T00:48:48;103141.19;;;13.20;49.73
13050;BME280;6591;51.446;5.404;2023-02-11T00:51:20;103130.50;;;13.20;49.71
13050;BME280;6591;51.446;5.404;2023-02-11T00:58:20;103134.16;;;13.14;49.77
13050;BME280;6591;51.446;5.404;2023-02-11T01:00:48;103126.06;;;13.19;50.16
13050;BME280;6591;51.446;5.404;2023-02-11T01:03:15;103136.72;;;13.22;49.51
13050;BME280;6591;51.446;5.404;2023-02-11T01:05:42;103140.19;;;13.24;49.54
13050;BME280;6591;51.446;5.404;2023-02-11T01:08:09;103137.41;;;13.30;49.59
13050;BME280;6591;51.446;5.404;2023-02-11T01:10:36;103147.19;;;13.31;49.53
13050;BME280;6591;51.446;5.404;2023-02-11T01:13:04;103147.16;;;13.34;49.63
13050;BME280;6591;51.446;5.404;2023-02-11T01:15:32;103145.31;;;13.36;49.45
13050;BME280;6591;51.446;5.404;2023-02-11T01:17:59;103153.28;;;13.39;49.77
13050;BME280;6591;51.446;5.404;2023-02-11T01:20:27;103152.31;;;13.42;49.50
13050;BME280;6591;51.446;5.404;2023-02-11T01:22:55;103146.97;;;13.43;49.59
13050;BME280;6591;51.446;5.404;2023-02-11T01:25:22;103149.56;;;13.46;49.65
13050;BME280;6591;51.446;5.404;2023-02-11T01:27:49;103141.53;;;13.46;49.27
13050;BME280;6591;51.446;5.404;2023-02-11T01:30:16;103147.75;;;13.47;49.37
13050;BME280;6591;51.446;5.404;2023-02-11T01:32:46;103153.09;;;13.48;49.43
13050;BME280;6591;51.446;5.404;2023-02-11T01:35:13;103156.63;;;13.49;49.56
13050;BME280;6591;51.446;5.404;2023-02-11T01:37:40;103160.13;;;13.51;49.58
13050;BME280;6591;51.446;5.404;2023-02-11T01:40:15;103153.91;;;13.50;49.15
13050;BME280;6591;51.446;5.404;2023-02-11T01:42:43;103157.44;;;13.52;49.36
13050;BME280;6591;51.446;5.404;2023-02-11T01:48:31;103132.63;;;13.47;49.63
13050;BME280;6591;51.446;5.404;2023-02-11T01:51:06;103130.88;;;13.46;49.43
13050;BME280;6591;51.446;5.404;2023-02-11T01:53:37;103136.16;;;13.49;49.44
13050;BME280;6591;51.446;5.404;2023-02-11T01:56:25;103123.75;;;13.47;49.27
13050;BME280;6591;51.446;5.404;2023-02-11T01:59:29;103127.41;;;13.41;49.26
13050;BME280;6591;51.446;5.404;2023-02-11T02:02:03;103124.69;;;13.44;49.73
13050;BME280;6591;51.446;5.404;2023-02-11T02:04:40;103121.97;;;13.46;49.43
13050;BME280;6591;51.446;5.404;2023-02-11T02:07:32;103122.06;;;13.43;49.69
13050;BME280;6591;51.446;5.404;2023-02-11T02:10:14;103125.59;;;13.45;49.58
13050;BME280;6591;51.446;5.404;2023-02-11T02:12:43;103124.69;;;13.44;49.37
13050;BME280;6591;51.446;5.404;2023-02-11T02:15:30;103114.97;;;13.40;49.44
13050;BME280;6591;51.446;5.404;2023-02-11T02:24:45;103123.19;;;13.31;49.90
13050;BME280;6591;51.446;5.404;2023-02-11T02:36:41;103114.41;;;13.25;49.60
13050;BME280;6591;51.446;5.404;2023-02-11T02:39:20;103112.56;;;13.28;49.56
13050;BME280;6591;51.446;5.404;2023-02-11T02:41:51;103116.06;;;13.32;49.54
13050;BME280;6591;51.446;5.404;2023-02-11T02:44:20;103118.69;;;13.33;49.81
13050;BME280;6591;51.446;5.404;2023-02-11T02:46:48;103120.47;;;13.34;49.54
13050;BME280;6591;51.446;5.404;2023-02-11T02:49:16;103107.06;;;13.36;49.45
13050;BME280;6591;51.446;5.404;2023-02-11T03:00:42;103099.13;;;13.34;49.67
13050;BME280;6591;51.446;5.404;2023-02-11T03:05:46;103095.56;;;13.34;49.79
13050;BME280;6591;51.446;5.404;2023-02-11T03:08:42;103119.69;;;13.29;49.28
13050;BME280;6591;51.446;5.404;2023-02-11T03:11:16;103117.84;;;13.30;49.66
13050;BME280;6591;51.446;5.404;2023-02-11T03:13:47;103120.50;;;13.31;49.72
13050;BME280;6591;51.446;5.404;2023-02-11T03:16:24;103108.06;;;13.30;49.46
13050;BME280;6591;51.446;5.404;2023-02-11T03:19:17;103106.34;;;13.29;49.83
13050;BME280;6591;51.446;5.404;2023-02-11T03:21:49;103097.34;;;13.33;49.63
13050;BME280;6591;51.446;5.404;2023-02-11T03:24:28;103102.69;;;13.33;49.62
13050;BME280;6591;51.446;5.404;2023-02-11T03:27:02;103105.31;;;13.35;49.64
13050;BME280;6591;51.446;5.404;2023-02-11T03:29:40;103099.97;;;13.35;49.58
13050;BME280;6591;51.446;5.404;2023-02-11T03:32:24;103103.53;;;13.35;49.92
13050;BME280;6591;51.446;5.404;2023-02-11T03:35:26;103092.84;;;13.35;49.93
13050;BME280;6591;51.446;5.404;2023-02-11T03:38:01;103092.84;;;13.35;49.58
13050;BME280;6591;51.446;5.404;2023-02-11T03:40:39;103091.03;;;13.37;49.71
13050;BME280;6591;51.446;5.404;2023-02-11T03:43:27;103088.38;;;13.37;49.61
13050;BME280;6591;51.446;5.404;2023-02-11T03:45:58;103095.38;;;13.41;49.68
13050;BME280;6591;51.446;5.404;2023-02-11T03:48:50;103109.63;;;13.40;50.04
13050;BME280;6591;51.446;5.404;2023-02-11T03:51:21;103105.09;;;13.45;49.54
13050;BME280;6591;51.446;5.404;2023-02-11T03:53:54;103109.53;;;13.46;49.68
13050;BME280;6591;51.446;5.404;2023-02-11T03:56:26;103115.72;;;13.48;49.52
13050;BME280;6591;51.446;5.404;2023-02-11T03:58:56;103100.53;;;13.50;49.50
13050;BME280;6591;51.446;5.404;2023-02-11T04:01:23;103094.28;;;13.51;49.70
13050;BME280;6591;51.446;5.404;2023-02-11T04:03:50;103090.72;;;13.52;49.43
13050;BME280;6591;51.446;5.404;2023-02-11T04:06:17;103103.16;;;13.53;49.79
13050;BME280;6591;51.446;5.404;2023-02-11T04:08:45;103097.84;;;13.52;49.46
13050;BME280;6591;51.446;5.404;2023-02-11T04:11:12;103105.81;;;13.53;49.84
13050;BME280;6591;51.446;5.404;2023-02-11T04:13:39;103091.59;;;13.53;49.79
13050;BME280;6591;51.446;5.404;2023-02-11T04:16:06;103088.03;;;13.52;49.82
13050;BME280;6591;51.446;5.404;2023-02-11T04:18:33;103086.22;;;13.54;49.55
13050;BME280;6591;51.446;5.404;2023-02-11T04:21:00;103076.44;;;13.55;49.84
13050;BME280;6591;51.446;5.404;2023-02-11T04:23:27;103057.75;;;13.55;49.63
13050;BME280;6591;51.446;5.404;2023-02-11T04:25:54;103062.16;;;13.56;49.40
13050;BME280;6591;51.446;5.404;2023-02-11T04:28:22;103061.28;;;13.55;50.22
13050;BME280;6591;51.446;5.404;2023-02-11T04:30:50;103069.25;;;13.57;49.65
13050;BME280;6591;51.446;5.404;2023-02-11T04:33:17;103063.03;;;13.56;49.62
13050;BME280;6591;51.446;5.404;2023-02-11T04:35:44;103069.25;;;13.57;49.79
13050;BME280;6591;51.446;5.404;2023-02-11T04:38:12;103070.13;;;13.57;49.71
13050;BME280;6591;51.446;5.404;2023-02-11T04:40:39;103064.81;;;13.57;49.90
13050;BME280;6591;51.446;5.404;2023-02-11T04:43:06;103070.13;;;13.57;50.10
13050;BME280;6591;51.446;5.404;2023-02-11T04:45:33;103066.56;;;13.58;49.63
13050;BME280;6591;51.446;5.404;2023-02-11T04:48:02;103067.47;;;13.57;49.84
13050;BME280;6591;51.446;5.404;2023-02-11T04:50:29;103071.03;;;13.58;49.73
13050;BME280;6591;51.446;5.404;2023-02-11T04:52:57;103069.22;;;13.58;49.75
13050;BME280;6591;51.446;5.404;2023-02-11T04:55:24;103077.22;;;13.60;49.65
13050;BME280;6591;51.446;5.404;2023-02-11T04:57:51;103075.44;;;13.59;49.49
13050;BME280;6591;51.446;5.404;2023-02-11T05:00:18;103079.91;;;13.58;49.96
13050;BME280;6591;51.446;5.404;2023-02-11T05:02:45;103083.44;;;13.61;49.84
13050;BME280;6591;51.446;5.404;2023-02-11T05:05:12;103083.38;;;13.62;49.61
13050;BME280;6591;51.446;5.404;2023-02-11T05:07:39;103085.16;;;13.62;49.65
13050;BME280;6591;51.446;5.404;2023-02-11T05:10:07;103076.25;;;13.63;49.64
13050;BME280;6591;51.446;5.404;2023-02-11T05:12:34;103079.81;;;13.63;49.84
13050;BME280;6591;51.446;5.404;2023-02-11T05:15:01;103091.38;;;13.62;49.76
13050;BME280;6591;51.446;5.404;2023-02-11T05:17:28;103089.59;;;13.63;49.75
13050;BME280;6591;51.446;5.404;2023-02-11T05:19:55;103090.47;;;13.63;50.00
13050;BME280;6591;51.446;5.404;2023-02-11T05:22:23;103078.91;;;13.63;49.87
13050;BME280;6591;51.446;5.404;2023-02-11T05:24:50;103083.34;;;13.64;50.00
13050;BME280;6591;51.446;5.404;2023-02-11T05:27:17;103074.50;;;13.62;49.98
13050;BME280;6591;51.446;5.404;2023-02-11T05:29:44;103064.69;;;13.62;49.87
13050;BME280;6591;51.446;5.404;2023-02-11T05:32:11;103070.91;;;13.63;50.01
13050;BME280;6591;51.446;5.404;2023-02-11T05:34:38;103068.28;;;13.61;50.13
13050;BME280;6591;51.446;5.404;2023-02-11T05:37:05;103077.16;;;13.62;50.14
13050;BME280;6591;51.446;5.404;2023-02-11T05:39:32;103074.50;;;13.62;50.05
13050;BME280;6591;51.446;5.404;2023-02-11T05:41:59;103066.47;;;13.62;50.13
13050;BME280;6591;51.446;5.404;2023-02-11T05:44:27;103058.47;;;13.62;49.97
13050;BME280;6591;51.446;5.404;2023-02-11T05:46:54;103063.81;;;13.62;50.18
13050;BME280;6591;51.446;5.404;2023-02-11T05:49:21;103057.56;;;13.63;49.88
13050;BME280;6591;51.446;5.404;2023-02-11T05:51:48;103055.75;;;13.65;50.09
13050;BME280;6591;51.446;5.404;2023-02-11T05:54:15;103056.63;;;13.65;49.83
13050;BME280;6591;51.446;5.404;2023-02-11T05:56:43;103061.03;;;13.66;50.00
13050;BME280;6591;51.446;5.404;2023-02-11T05:59:13;103060.13;;;13.67;50.07
13050;BME280;6591;51.446;5.404;2023-02-11T06:01:40;103065.47;;;13.67;50.12
13050;BME280;6591;51.446;5.404;2023-02-11T06:04:08;103071.66;;;13.69;50.14
13050;BME280;6591;51.446;5.404;2023-02-11T06:06:37;103078.78;;;13.70;50.21
13050;BME280;6591;51.446;5.404;2023-02-11T06:09:04;103078.72;;;13.72;50.19
13050;BME280;6591;51.446;5.404;2023-02-11T06:11:31;103085.81;;;13.73;50.07
13050;BME280;6591;51.446;5.404;2023-02-11T06:13:58;103085.81;;;13.73;50.10
13050;BME280;6591;51.446;5.404;2023-02-11T06:16:26;103087.56;;;13.74;50.08
13050;BME280;6591;51.446;5.404;2023-02-11T06:18:55;103079.56;;;13.74;50.21
13050;BME280;6591;51.446;5.404;2023-02-11T06:21:22;103076.00;;;13.73;50.02
13050;BME280;6591;51.446;5.404;2023-02-11T06:23:56;103075.13;;;13.73;49.98
13050;BME280;6591;51.446;5.404;2023-02-11T06:26:23;103077.81;;;13.71;50.27
13050;BME280;6591;51.446;5.404;2023-02-11T06:28:50;103076.94;;;13.72;49.96
13050;BME280;6591;51.446;5.404;2023-02-11T06:31:17;103077.81;;;13.71;50.30
13050;BME280;6591;51.446;5.404;2023-02-11T06:33:44;103079.59;;;13.72;50.24
13050;BME280;6591;51.446;5.404;2023-02-11T06:36:18;103077.81;;;13.71;50.46
13050;BME280;6591;51.446;5.404;2023-02-11T06:38:47;103079.59;;;13.72;50.21
13050;BME280;6591;51.446;5.404;2023-02-11T06:41:17;103075.13;;;13.73;50.38
13050;BME280;6591;51.446;5.404;2023-02-11T06:43:47;103076.00;;;13.73;50.10
13050;BME280;6591;51.446;5.404;2023-02-11T06:46:17;103075.13;;;13.73;50.20
13050;BME280;6591;51.446;5.404;2023-02-11T06:48:44;103080.47;;;13.73;50.46
13050;BME280;6591;51.446;5.404;2023-02-11T06:51:13;103072.47;;;13.73;50.35
13050;BME280;6591;51.446;5.404;2023-02-11T06:53:45;103085.81;;;13.73;50.39
13050;BME280;6591;51.446;5.404;2023-02-11T06:56:18;103087.56;;;13.74;50.20
13050;BME280;6591;51.446;5.404;2023-02-11T06:58:45;103091.09;;;13.76;50.73
13050;BME280;6591;51.446;5.404;2023-02-11T07:01:15;103099.13;;;13.76;50.46
13050;BME280;6591;51.446;5.404;2023-02-11T07:03:44;103101.72;;;13.77;50.30
13050;BME280;6591;51.446;5.404;2023-02-11T07:06:19;103103.50;;;13.77;50.16
13050;BME280;6591;51.446;5.404;2023-02-11T07:08:48;103106.13;;;13.81;50.29
13050;BME280;6591;51.446;5.404;2023-02-11T07:11:19;103103.38;;;13.83;50.79
13050;BME280;6591;51.446;5.404;2023-02-11T07:13:46;103101.56;;;13.85;50.58
13050;BME280;6591;51.446;5.404;2023-02-11T07:16:17;103105.16;;;13.82;50.37
13050;BME280;6591;51.446;5.404;2023-02-11T07:18:46;103113.13;;;13.87;50.64
13050;BME280;6591;51.446;5.404;2023-02-11T07:21:17;103111.34;;;13.86;50.27
13050;BME280;6591;51.446;5.404;2023-02-11T07:23:47;103116.59;;;13.89;50.27
13050;BME280;6591;51.446;5.404;2023-02-11T07:26:18;103121.03;;;13.90;50.65
13050;BME280;6591;51.446;5.404;2023-02-11T07:28:45;103113.81;;;13.93;50.30
13050;BME280;6591;51.446;5.404;2023-02-11T07:31:22;103112.03;;;13.94;50.30
13050;BME280;6591;51.446;5.404;2023-02-11T07:33:56;103116.44;;;13.96;50.36
13050;BME280;6591;51.446;5.404;2023-02-11T07:36:23;103122.59;;;14.00;50.41
13050;BME280;6591;51.446;5.404;2023-02-11T07:38:50;103119.88;;;14.02;50.45
13050;BME280;6591;51.446;5.404;2023-02-11T07:41:20;103121.66;;;14.03;50.33
13050;BME280;6591;51.446;5.404;2023-02-11T07:43:49;103129.59;;;14.06;50.37
13050;BME280;6591;51.446;5.404;2023-02-11T07:46:23;103126.03;;;14.05;50.41
13050;BME280;6591;51.446;5.404;2023-02-11T07:48:52;103132.16;;;14.09;50.45
13050;BME280;6591;51.446;5.404;2023-02-11T07:51:29;103128.63;;;14.08;50.81
13050;BME280;6591;51.446;5.404;2023-02-11T07:53:58;103128.53;;;14.13;50.38
13050;BME280;6591;51.446;5.404;2023-02-11T07:56:29;103134.72;;;14.13;50.41
13050;BME280;6591;51.446;5.404;2023-02-11T07:59:00;103131.16;;;14.14;50.69
13050;BME280;6591;51.446;5.404;2023-02-11T08:01:29;103136.44;;;14.17;50.50
13050;BME280;6591;51.446;5.404;2023-02-11T08:04:02;103131.03;;;14.20;50.86
13050;BME280;6591;51.446;5.404;2023-02-11T08:06:32;103143.38;;;14.24;50.72
13050;BME280;6591;51.446;5.404;2023-02-11T08:09:06;103147.81;;;14.25;50.71
13050;BME280;6591;51.446;5.404;2023-02-11T08:11:34;103149.50;;;14.29;50.54
13050;BME280;6591;51.446;5.404;2023-02-11T08:14:01;103153.03;;;14.31;50.73
13050;BME280;6591;51.446;5.404;2023-02-11T08:16:33;103153.91;;;14.32;50.82
13050;BME280;6591;51.446;5.404;2023-02-11T08:19:09;103149.41;;;14.34;50.84
13050;BME280;6591;51.446;5.404;2023-02-11T08:21:40;103146.66;;;14.38;50.77
13050;BME280;6591;51.446;5.404;2023-02-11T08:24:08;103152.91;;;14.39;50.36
13050;BME280;6591;51.446;5.404;2023-02-11T08:26:37;103159.03;;;14.43;50.77
13050;BME280;6591;51.446;5.404;2023-02-11T08:29:09;103158.13;;;14.44;50.71
13050;BME280;6591;51.446;5.404;2023-02-11T08:31:41;103164.25;;;14.47;50.56
13050;BME280;6591;51.446;5.404;2023-02-11T08:34:12;103160.69;;;14.48;50.53
13050;BME280;6591;51.446;5.404;2023-02-11T08:36:46;103161.50;;;14.50;50.64
13050;BME280;6591;51.446;5.404;2023-02-11T08:39:21;103166.84;;;14.50;50.86
13050;BME280;6591;51.446;5.404;2023-02-11T08:41:52;103164.13;;;14.53;50.87
13050;BME280;6591;51.446;5.404;2023-02-11T08:44:21;103164.91;;;14.57;50.66
13050;BME280;6591;51.446;5.404;2023-02-11T08:46:49;103171.94;;;14.61;50.76
13050;BME280;6591;51.446;5.404;2023-02-11T08:49:17;103171.88;;;14.64;50.78
13050;BME280;6591;51.446;5.404;2023-02-11T08:51:45;103170.00;;;14.67;51.12
13050;BME280;6591;51.446;5.404;2023-02-11T08:54:13;103169.06;;;14.70;50.82
13050;BME280;6591;51.446;5.404;2023-02-11T08:56:40;103168.97;;;14.73;50.71
13050;BME280;6591;51.446;5.404;2023-02-11T08:59:12;103169.75;;;14.76;50.74
13050;BME280;6591;51.446;5.404;2023-02-11T09:01:39;103175.03;;;14.81;50.41
13050;BME280;6591;51.446;5.404;2023-02-11T09:04:10;103166.03;;;14.83;50.67
13050;BME280;6591;51.446;5.404;2023-02-11T09:06:38;103173.09;;;14.86;50.54
13050;BME280;6591;51.446;5.404;2023-02-11T09:09:05;103181.94;;;14.88;50.46
13050;BME280;6591;51.446;5.404;2023-02-11T09:11:35;103177.44;;;14.90;50.73
13050;BME280;6591;51.446;5.404;2023-02-11T09:14:03;103183.59;;;14.94;51.01
13050;BME280;6591;51.446;5.404;2023-02-11T09:16:34;103184.47;;;14.94;50.66
13050;BME280;6591;51.446;5.404;2023-02-11T09:19:04;103179.09;;;14.96;50.99
13050;BME280;6591;51.446;5.404;2023-02-11T09:21:31;103184.34;;;14.99;50.52
13050;BME280;6591;51.446;5.404;2023-02-11T09:23:58;103185.19;;;15.01;50.73
13050;BME280;6591;51.446;5.404;2023-02-11T09:26:31;103178.97;;;15.00;50.69
13050;BME280;6591;51.446;5.404;2023-02-11T09:29:00;103180.63;;;15.04;50.78
13050;BME280;6591;51.446;5.404;2023-02-11T09:31:30;103186.00;;;15.04;50.83
13050;BME280;6591;51.446;5.404;2023-02-11T09:34:01;103191.25;;;15.07;50.53
13050;BME280;6591;51.446;5.404;2023-02-11T09:36:34;103192.09;;;15.09;50.76
13050;BME280;6591;51.446;5.404;2023-02-11T09:39:06;103200.97;;;15.11;50.57
13050;BME280;6591;51.446;5.404;2023-02-11T09:42:05;103205.41;;;15.12;50.82
13050;BME280;6591;51.446;5.404;2023-02-11T09:44:37;103203.53;;;15.16;50.77
13050;BME280;6591;51.446;5.404;2023-02-11T09:48:17;103206.28;;;15.13;51.08
13050;BME280;6591;51.446;5.404;2023-02-11T09:50:44;103211.41;;;15.22;50.83
13050;BME280;6591;51.446;5.404;2023-02-11T09:55:47;103220.19;;;15.27;50.78
13050;BME280;6591;51.446;5.404;2023-02-11T09:58:28;103217.44;;;15.28;50.81
13050;BME280;6591;51.446;5.404;2023-02-11T10:01:40;103218.41;;;15.27;50.65
13050;BME280;6591;51.446;5.404;2023-02-11T10:07:39;103221.94;;;15.28;50.76
13050;BME280;6591;51.446;5.404;2023-02-11T10:16:35;103223.34;;;15.43;51.03
13050;BME280;6591;51.446;5.404;2023-02-11T10:22:31;103233.72;;;15.55;50.92
13050;BME280;6591;51.446;5.404;2023-02-11T10:25:39;103238.91;;;15.61;50.77
13050;BME280;6591;51.446;5.404;2023-02-11T10:28:20;103244.94;;;15.69;50.84
13050;BME280;6591;51.446;5.404;2023-02-11T10:31:06;103243.94;;;15.73;50.61
13050;BME280;6591;51.446;5.404;2023-02-11T10:33:56;103254.56;;;15.76;50.53
13050;BME280;6591;51.446;5.404;2023-02-11T10:36:32;103254.38;;;15.82;50.28
13050;BME280;6591;51.446;5.404;2023-02-11T10:39:12;103251.66;;;15.84;50.40
13050;BME280;6591;51.446;5.404;2023-02-11T10:41:45;103242.63;;;15.88;50.30
13050;BME280;6591;51.446;5.404;2023-02-11T10:44:31;103256.00;;;15.88;50.39
13050;BME280;6591;51.446;5.404;2023-02-11T10:47:10;103248.81;;;15.90;50.01
13050;BME280;6591;51.446;5.404;2023-02-11T10:49:45;103249.59;;;15.93;50.46
13050;BME280;6591;51.446;5.404;2023-02-11T10:52:25;103252.28;;;15.93;50.25
13050;BME280;6591;51.446;5.404;2023-02-11T10:55:21;103257.59;;;15.95;50.31
13050;BME280;6591;51.446;5.404;2023-02-11T10:57:58;103262.88;;;15.98;50.23
13050;BME280;6591;51.446;5.404;2023-02-11T11:00:40;103261.91;;;16.00;50.45
13050;BME280;6591;51.446;5.404;2023-02-11T11:03:23;103260.91;;;16.04;50.59
13050;BME280;6591;51.446;5.404;2023-02-11T11:05:56;103261.63;;;16.09;49.87
13050;BME280;6591;51.446;5.404;2023-02-11T11:08:44;103263.41;;;16.10;50.08
13050;BME280;6591;51.446;5.404;2023-02-11T11:11:20;103267.75;;;16.15;50.04
13050;BME280;6591;51.446;5.404;2023-02-11T11:13:59;103269.53;;;16.14;50.20
13050;BME280;6591;51.446;5.404;2023-02-11T11:16:35;103265.06;;;16.15;50.29
13050;BME280;6591;51.446;5.404;2023-02-11T11:21:46;103266.00;;;16.12;50.08
13050;BME280;6591;51.446;5.404;2023-02-11T11:24:28;103265.94;;;16.15;50.16
13050;BME280;6591;51.446;5.404;2023-02-11T11:27:02;103273.94;;;16.17;50.02
13050;BME280;6591;51.446;5.404;2023-02-11T11:29:35;103267.59;;;16.19;49.96
13050;BME280;6591;51.446;5.404;2023-02-11T11:32:14;103269.31;;;16.22;50.23
13050;BME280;6591;51.446;5.404;2023-02-11T11:34:59;103279.06;;;16.24;50.06
13050;BME280;6591;51.446;5.404;2023-02-11T11:37:35;103272.75;;;16.27;50.24
13050;BME280;6591;51.446;5.404;2023-02-11T11:40:25;103270.00;;;16.28;50.01
13050;BME280;6591;51.446;5.404;2023-02-11T11:43:14;103280.63;;;16.33;50.14
13050;BME280;6591;51.446;5.404;2023-02-11T11:45:57;103278.75;;;16.35;50.16
13050;BME280;6591;51.446;5.404;2023-02-11T11:48:34;103284.88;;;16.38;50.07
13050;BME280;6591;51.446;5.404;2023-02-11T11:51:09;103279.41;;;16.43;50.07
13050;BME280;6591;51.446;5.404;2023-02-11T11:53:51;103280.22;;;16.45;50.15
13050;BME280;6591;51.446;5.404;2023-02-11T11:56:33;103276.63;;;16.46;50.12
13050;BME280;6591;51.446;5.404;2023-02-11T11:59:10;103277.34;;;16.51;49.69
13050;BME280;6591;51.446;5.404;2023-02-11T12:12:43;103267.19;;;16.62;49.86
13050;BME280;6591;51.446;5.404;2023-02-11T12:25:04;103248.47;;;16.61;50.08
13050;BME280;6591;51.446;5.404;2023-02-11T12:28:04;103249.28;;;16.64;49.93
13050;BME280;6591;51.446;5.404;2023-02-11T12:31:05;103241.16;;;16.66;49.92
13050;BME280;6591;51.446;5.404;2023-02-11T12:34:06;103246.44;;;16.69;49.88
13050;BME280;6591;51.446;5.404;2023-02-11T12:40:14;103244.38;;;16.77;50.23
13050;BME280;6591;51.446;5.404;2023-02-11T12:43:11;103245.97;;;16.82;49.85
13050;BME280;6591;51.446;5.404;2023-02-11T12:46:33;103246.81;;;16.84;49.94
13050;BME280;6591;51.446;5.404;2023-02-11T12:52:56;103236.53;;;16.97;50.01
13050;BME280;6591;51.446;5.404;2023-02-11T12:55:29;103232.75;;;17.03;50.04
13050;BME280;6591;51.446;5.404;2023-02-11T12:58:04;103233.41;;;17.11;49.83
13050;BME280;6591;51.446;5.404;2023-02-11T13:00:50;103234.94;;;17.18;49.83
13050;BME280;6591;51.446;5.404;2023-02-11T13:03:49;103235.59;;;17.24;50.05
13050;BME280;6591;51.446;5.404;2023-02-11T13:06:51;103237.97;;;17.33;49.95
13050;BME280;6591;51.446;5.404;2023-02-11T13:09:25;103237.50;;;17.47;49.89
13050;BME280;6591;51.446;5.404;2023-02-11T13:11:59;103235.25;;;17.60;49.66
13050;BME280;6591;51.446;5.404;2023-02-11T13:14:51;103232.97;;;17.74;49.80
13050;BME280;6591;51.446;5.404;2023-02-11T13:17:32;103222.78;;;17.82;49.65
13050;BME280;6591;51.446;5.404;2023-02-11T13:20:33;103223.44;;;17.89;49.46
13050;BME280;6591;51.446;5.404;2023-02-11T13:23:33;103220.41;;;17.98;49.37
13050;BME280;6591;51.446;5.404;2023-02-11T13:26:22;103215.50;;;18.09;49.23
13050;BME280;6591;51.446;5.404;2023-02-11T13:32:08;103224.59;;;18.28;49.27
13050;BME280;6591;51.446;5.404;2023-02-11T13:37:21;103216.28;;;18.34;48.69
13050;BME280;6591;51.446;5.404;2023-02-11T13:40:20;103208.34;;;18.31;48.66
13050;BME280;6591;51.446;5.404;2023-02-11T13:42:58;103218.16;;;18.32;48.60
13050;BME280;6591;51.446;5.404;2023-02-11T13:45:44;103215.41;;;18.34;48.67
13050;BME280;6591;51.446;5.404;2023-02-11T13:48:21;103214.47;;;18.35;48.55
13050;BME280;6591;51.446;5.404;2023-02-11T13:50:55;103212.59;;;18.37;48.34
13050;BME280;6591;51.446;5.404;2023-02-11T13:53:23;103210.66;;;18.40;48.57
13050;BME280;6591;51.446;5.404;2023-02-11T13:56:07;103217.91;;;18.38;48.33
13050;BME280;6591;51.446;5.404;2023-02-11T13:58:49;103215.22;;;18.38;48.14
13050;BME280;6591;51.446;5.404;2023-02-11T14:04:33;103209.22;;;18.32;48.18
13050;BME280;6591;51.446;5.404;2023-02-11T14:07:32;103215.72;;;18.26;47.99
13050;BME280;6591;51.446;5.404;2023-02-11T14:10:50;103215.97;;;18.20;48.33
13050;BME280;6591;51.446;5.404;2023-02-11T14:13:32;103218.50;;;18.23;48.47
13050;BME280;6591;51.446;5.404;2023-02-11T14:27:17;103231.50;;;18.12;47.96
13050;BME280;6591;51.446;5.404;2023-02-11T14:30:05;103220.13;;;18.05;47.77
13050;BME280;6591;51.446;5.404;2023-02-11T14:38:51;103223.44;;;17.89;47.98
13050;BME280;6591;51.446;5.404;2023-02-11T14:41:44;103228.13;;;17.84;48.17
13050;BME280;6591;51.446;5.404;2023-02-11T14:44:24;103227.19;;;17.85;47.84
13050;BME280;6591;51.446;5.404;2023-02-11T14:46:54;103230.72;;;17.85;48.02
13050;BME280;6591;51.446;5.404;2023-02-11T14:49:33;103227.28;;;17.82;48.07
13050;BME280;6591;51.446;5.404;2023-02-11T14:52:25;103224.72;;;17.78;48.18
13050;BME280;6591;51.446;5.404;2023-02-11T14:57:33;103229.16;;;17.79;47.97
13050;BME280;6591;51.446;5.404;2023-02-11T15:00:13;103236.41;;;17.77;48.22
13050;BME280;6591;51.446;5.404;2023-02-11T15:02:42;103236.41;;;17.77;48.02
13050;BME280;6591;51.446;5.404;2023-02-11T15:05:21;103233.72;;;17.77;47.97
13050;BME280;6591;51.446;5.404;2023-02-11T15:08:02;103241.06;;;17.72;47.82
13050;BME280;6591;51.446;5.404;2023-02-11T15:10:40;103242.00;;;17.71;47.98
13050;BME280;6591;51.446;5.404;2023-02-11T15:13:18;103245.69;;;17.69;47.78
13050;BME280;6591;51.446;5.404;2023-02-11T15:15:53;103246.53;;;17.69;47.93
13050;BME280;6591;51.446;5.404;2023-02-11T15:18:30;103249.34;;;17.66;48.05
13050;BME280;6591;51.446;5.404;2023-02-11T15:20:59;103245.78;;;17.66;48.02
13050;BME280;6591;51.446;5.404;2023-02-11T15:23:28;103250.31;;;17.64;47.90
13050;BME280;6591;51.446;5.404;2023-02-11T15:25:57;103256.69;;;17.61;48.15
13050;BME280;6591;51.446;5.404;2023-02-11T15:28:33;103251.47;;;17.57;48.14